createdAt,value
2023-05-05T04:53:22.266Z,69.98
2023-05-05T04:58:24.342Z,59.68
2023-05-05T05:03:26.429Z,53.74
2023-05-05T05:08:28.903Z,51.62
2023-05-05T05:13:30.875Z,48.98
2023-05-05T05:18:32.732Z,46.70
2023-05-05T05:23:34.707Z,45.26
2023-05-05T05:28:36.631Z,44.02
2023-05-05T05:33:38.501Z,43.85
2023-05-05T05:38:41.341Z,43.81
2023-05-05T05:43:44.182Z,43.35
2023-05-05T05:48:46.196Z,42.93
2023-05-05T05:53:48.792Z,42.84
2023-05-05T05:58:50.814Z,42.77
2023-05-05T06:03:53.777Z,41.91
2023-05-05T06:08:56.527Z,41.61
2023-05-05T06:13:59.231Z,41.34
2023-05-05T06:19:01.730Z,41.21
2023-05-05T06:24:03.952Z,41.52
2023-05-05T06:29:06.792Z,41.28
2023-05-05T06:34:08.593Z,41.45
2023-05-05T06:39:10.341Z,40.86
2023-05-05T06:44:12.075Z,40.29
2023-05-05T06:49:13.802Z,40.47
2023-05-05T06:54:15.556Z,40.24
2023-05-05T06:59:17.382Z,39.39
2023-05-05T07:04:19.272Z,40.17
2023-05-05T07:09:21.531Z,39.05
2023-05-05T07:14:24.525Z,39.36
2023-05-05T07:19:26.486Z,38.74
2023-05-05T07:24:28.314Z,37.51
2023-05-05T07:29:30.117Z,38.90
2023-05-05T07:34:34.365Z,40.30
2023-05-05T07:39:36.360Z,41.07
2023-05-05T07:44:38.147Z,41.62
2023-05-05T07:49:39.922Z,41.36
2023-05-05T07:54:42.453Z,39.03
2023-05-05T07:59:44.540Z,38.99
2023-05-05T08:04:46.435Z,46.83
2023-05-05T08:09:48.333Z,50.67
2023-05-05T08:14:50.148Z,49.27
2023-05-05T08:19:52.909Z,49.23
2023-05-05T08:24:54.693Z,44.95
2023-05-05T08:29:57.756Z,50.76
2023-05-05T08:35:03.264Z,52.38
2023-05-05T08:40:06.222Z,51.40
2023-05-05T08:45:10.008Z,48.60
2023-05-05T08:50:12.514Z,45.57
2023-05-05T08:55:21.800Z,47.97
2023-05-05T09:00:24.606Z,46.11
2023-05-05T09:05:26.801Z,46.15
2023-05-05T09:10:29.501Z,43.56
2023-05-05T09:15:32.159Z,46.50
2023-05-05T09:20:38.193Z,48.14
2023-05-05T09:25:41.719Z,46.13
2023-05-05T09:30:46.191Z,44.42
2023-05-05T09:35:57.364Z,46.00
2023-05-05T09:40:59.123Z,43.91
2023-05-05T09:46:08.036Z,42.88
2023-05-05T09:51:09.959Z,46.62
2023-05-05T09:56:12.267Z,47.10
2023-05-05T10:01:22.751Z,48.54
2023-05-05T10:06:48.584Z,48.27
2023-05-05T10:11:50.628Z,49.15
2023-05-05T10:16:55.311Z,46.85
2023-05-05T10:22:03.943Z,40.58
2023-05-05T10:27:24.007Z,37.33
2023-05-05T10:37:41.594Z,36.04
2023-05-05T10:42:43.755Z,34.68
2023-05-05T10:47:45.990Z,36.75
2023-05-05T10:53:26.787Z,43.19
2023-05-05T10:58:55.621Z,41.58
2023-05-05T11:04:21.583Z,40.72
2023-05-05T11:09:28.058Z,44.37
2023-05-05T11:14:29.857Z,42.19
2023-05-05T11:19:43.964Z,42.27
2023-05-05T11:24:46.345Z,42.31
2023-05-05T11:30:08.064Z,41.60
2023-05-05T11:35:10.012Z,42.22
2023-05-05T11:40:35.052Z,42.34
2023-05-05T11:45:36.839Z,40.48
2023-05-05T11:50:38.847Z,43.15
2023-05-05T11:55:40.551Z,42.90
2023-05-05T12:00:42.336Z,43.79
2023-05-05T12:05:44.316Z,39.27
2023-05-05T12:10:45.994Z,37.16
2023-05-05T12:15:48.271Z,40.45
2023-05-05T12:20:50.093Z,37.59
2023-05-05T12:25:51.878Z,38.22
2023-05-05T12:30:57.825Z,39.81
2023-05-05T12:35:59.565Z,38.25
2023-05-05T12:41:02.647Z,37.10
2023-05-05T12:46:10.729Z,37.28
2023-05-05T12:51:14.689Z,37.46
2023-05-05T12:56:36.418Z,36.29
2023-05-05T13:01:49.916Z,34.86
2023-05-05T13:07:14.784Z,35.25
2023-05-05T13:12:18.755Z,35.89
2023-05-05T13:17:20.526Z,36.47
2023-05-05T13:22:22.266Z,36.07
2023-05-05T13:27:23.986Z,37.20
2023-05-05T13:32:25.719Z,37.62
2023-05-05T13:37:27.776Z,36.03
2023-05-05T13:42:29.453Z,37.47
2023-05-05T13:47:31.205Z,37.35
2023-05-05T13:52:33.024Z,34.02
2023-05-05T13:57:35.425Z,32.84
2023-05-05T14:02:37.189Z,33.13
2023-05-05T14:07:39.104Z,32.80
2023-05-05T14:12:40.997Z,29.39
2023-05-05T14:17:42.870Z,31.49
2023-05-05T14:22:44.728Z,27.62
2023-05-05T14:27:46.535Z,29.17
2023-05-05T14:32:48.332Z,28.28
2023-05-05T14:37:50.111Z,27.53
2023-05-05T14:42:51.932Z,27.21
2023-05-05T14:47:53.946Z,28.84
2023-05-05T14:52:55.805Z,27.37
2023-05-05T14:57:57.640Z,26.86
2023-05-05T15:02:59.431Z,28.59
2023-05-05T15:08:01.468Z,27.42
2023-05-05T15:13:03.257Z,28.98
2023-05-05T15:18:05.600Z,28.84
2023-05-05T15:23:07.332Z,28.61
2023-05-05T15:28:09.116Z,26.61
2023-05-05T15:33:11.099Z,27.17
2023-05-05T15:38:12.845Z,27.55
2023-05-05T15:43:14.677Z,24.84
2023-05-05T15:48:16.456Z,25.72
2023-05-05T15:53:18.295Z,26.03
2023-05-05T15:58:20.175Z,25.37
2023-05-05T16:03:22.102Z,28.54
2023-05-05T16:08:24.145Z,24.97
2023-05-05T16:13:25.982Z,23.70
2023-05-05T16:18:27.798Z,27.25
2023-05-05T16:23:29.619Z,29.56
2023-05-05T16:28:31.413Z,26.63
2023-05-05T16:33:33.222Z,25.24
2023-05-05T16:38:35.019Z,26.83
2023-05-05T16:43:37.290Z,27.53
2023-05-05T16:48:39.242Z,24.75
2023-05-05T16:53:41.099Z,24.68
2023-05-05T16:58:42.935Z,27.01
2023-05-05T17:03:44.769Z,26.95
2023-05-05T17:08:46.740Z,26.33
2023-05-05T17:13:48.544Z,24.29
2023-05-05T17:18:50.478Z,26.92
2023-05-05T17:23:52.265Z,26.15
2023-05-05T17:28:54.043Z,23.78
2023-05-05T17:33:56.093Z,25.45
2023-05-05T17:38:57.934Z,26.60
2023-05-05T17:43:59.751Z,26.32
2023-05-05T17:49:01.605Z,26.39
2023-05-05T17:54:03.481Z,26.11
2023-05-05T17:59:05.280Z,24.77
2023-05-05T18:04:07.021Z,24.66
2023-05-05T18:09:11.238Z,24.19
2023-05-05T18:14:13.223Z,26.86
2023-05-05T18:19:15.618Z,26.07
2023-05-05T18:24:20.502Z,25.94
2023-05-05T18:29:22.709Z,25.97
2023-05-05T18:34:24.469Z,28.02
2023-05-05T18:39:26.941Z,28.69
2023-05-05T18:44:29.153Z,27.72
2023-05-05T18:49:31.564Z,28.32
2023-05-05T18:54:34.672Z,26.70
2023-05-05T18:59:38.053Z,25.69
2023-05-05T19:04:41.312Z,25.17
2023-05-05T19:09:43.297Z,25.00
2023-05-05T19:14:45.124Z,25.16
2023-05-05T19:19:46.899Z,25.77
2023-05-05T19:24:48.619Z,27.13
2023-05-05T19:29:52.518Z,26.29
2023-05-05T19:34:54.678Z,27.23
2023-05-05T19:39:56.555Z,26.54
2023-05-05T19:44:58.417Z,27.82
2023-05-05T19:50:00.288Z,30.76
2023-05-05T19:55:02.593Z,29.25
2023-05-05T20:00:04.919Z,29.24
2023-05-05T20:05:07.741Z,28.83
2023-05-05T20:10:10.639Z,28.59
2023-05-05T20:15:12.660Z,27.82
2023-05-05T20:20:21.305Z,28.32
2023-05-05T20:25:23.070Z,28.37
2023-05-05T20:30:24.855Z,28.87
2023-05-05T20:35:26.777Z,31.47
2023-05-05T20:40:28.601Z,30.96
2023-05-05T20:45:31.767Z,31.06
2023-05-05T20:50:33.524Z,32.21
2023-05-05T20:55:35.527Z,32.38
2023-05-05T21:00:37.450Z,31.88
2023-05-05T21:05:42.893Z,32.52
2023-05-05T21:10:44.755Z,32.42
2023-05-05T21:15:46.516Z,32.00
2023-05-05T21:20:48.300Z,32.30
2023-05-05T21:25:50.139Z,33.07
2023-05-05T21:31:10.141Z,33.26
2023-05-05T21:36:17.437Z,32.37
2023-05-05T21:41:19.224Z,32.45
2023-05-05T21:46:21.101Z,33.96
2023-05-05T21:51:23.528Z,34.47
2023-05-05T21:56:25.286Z,32.16
2023-05-05T22:01:27.117Z,33.70
2023-05-05T22:06:29.010Z,33.72
2023-05-05T22:11:31.240Z,33.53
2023-05-05T22:16:33.050Z,33.97
2023-05-05T22:21:34.883Z,34.48
2023-05-05T22:26:36.651Z,34.21
2023-05-05T22:31:38.759Z,34.98
2023-05-05T22:36:40.750Z,35.17
2023-05-05T22:41:42.534Z,34.77
2023-05-05T22:46:44.375Z,34.74
2023-05-05T22:51:46.949Z,34.37
2023-05-05T22:56:48.711Z,33.52
2023-05-05T23:01:50.482Z,33.53
2023-05-05T23:06:52.203Z,33.45
2023-05-05T23:11:54.070Z,33.58
2023-05-05T23:16:55.877Z,33.26
2023-05-05T23:21:57.994Z,33.80
2023-05-05T23:27:04.113Z,33.63
2023-05-05T23:32:08.789Z,34.67
2023-05-05T23:37:10.655Z,34.25
2023-05-05T23:42:12.396Z,34.60
2023-05-05T23:47:14.101Z,35.39
2023-05-05T23:52:16.080Z,34.70
2023-05-05T23:57:17.819Z,35.42
